Time;durP1;ratioP1;P1;durP2;ratioP2;P2;SDS_P1;SDS_P2;PMS_P1;PMS_P2;Temp;Humidity;BMP_temperature;BMP_pressure;BME280_temperature;BME280_humidity;BME280_pressure;Samples;Min_cycle;Max_cycle;Signal;HPM_P1;HPM_P2
2021/07/21 00:01:20;;;;;;;;;19.00;18.25;;;;;24.71;46.00;101663.19;5060383;28;47148;-70
2021/07/21 00:03:45;;;;;;;;;19.75;18.25;;;;;24.68;46.26;101647.47;5049673;28;45391;-69
2021/07/21 00:06:11;;;;;;;;;20.00;18.50;;;;;24.68;45.94;101660.75;5060751;28;45724;-71
2021/07/21 00:08:37;;;;;;;;;21.00;17.50;;;;;24.62;46.72;101637.25;5053426;28;45372;-71
2021/07/21 00:13:46;;;;;;;;;22.50;18.25;;;;;24.60;46.37;101655.97;5055024;28;45462;-71
2021/07/21 00:16:17;;;;;;;;;19.25;18.25;;;;;24.53;46.58;101647.59;5061685;28;45494;-71
2021/07/21 00:21:10;;;;;;;;;19.75;19.00;;;;;24.49;46.80;101654.09;5057061;28;46832;-70
2021/07/21 00:23:38;;;;;;;;;27.25;21.25;;;;;24.45;46.75;101657.94;5052743;28;45697;-70
2021/07/21 00:26:04;;;;;;;;;23.75;20.75;;;;;24.41;46.89;101652.94;5061647;28;45331;-70
2021/07/21 00:28:29;;;;;;;;;24.00;22.75;;;;;24.38;46.81;101654.00;5055892;28;45450;-69
2021/07/21 00:30:56;;;;;;;;;32.50;26.50;;;;;24.32;47.13;101651.78;5049962;28;45468;-69
2021/07/21 00:33:23;;;;;;;;;34.25;26.75;;;;;24.30;47.43;101652.84;5031755;28;45896;-69
2021/07/21 00:35:49;;;;;;;;;28.00;24.00;;;;;24.27;47.53;101652.09;5049792;28;45526;-69
2021/07/21 00:38:15;;;;;;;;;24.50;22.75;;;;;24.26;47.42;101650.38;5051133;28;45363;-69
2021/07/21 00:40:41;;;;;;;;;31.50;24.50;;;;;24.24;47.33;101660.28;5053179;28;45240;-69
2021/07/21 00:43:06;;;;;;;;;22.50;18.50;;;;;24.23;47.24;101658.56;5048989;28;45320;-68
2021/07/21 00:45:32;;;;;;;;;26.00;22.25;;;;;24.20;47.40;101663.22;5053012;28;45375;-67
2021/07/21 00:47:57;;;;;;;;;26.25;23.00;;;;;24.19;47.86;101662.38;5032851;28;45260;-67
2021/07/21 00:50:23;;;;;;;;;30.25;22.50;;;;;24.18;47.70;101659.84;5052829;28;45977;-68
2021/07/21 00:52:50;;;;;;;;;25.75;22.50;;;;;24.13;47.63;101648.69;5048130;28;45277;-68
2021/07/21 00:55:16;;;;;;;;;21.00;18.75;;;;;24.08;47.70;101659.63;5051029;28;46321;-68
2021/07/21 00:57:42;;;;;;;;;23.75;22.25;;;;;24.04;47.94;101652.00;5050147;28;45399;-68
2021/07/21 01:00:12;;;;;;;;;20.25;17.75;;;;;24.03;48.15;101658.22;5050819;28;46037;-68
2021/07/21 01:02:37;;;;;;;;;24.00;18.00;;;;;24.00;48.31;101663.75;5046889;28;45226;-67
2021/07/21 01:05:10;;;;;;;;;23.25;16.50;;;;;23.97;48.33;101665.69;5051954;28;45281;-67
2021/07/21 01:07:39;;;;;;;;;31.50;23.00;;;;;23.95;48.21;101672.91;5046689;28;45307;-68
2021/07/21 01:10:07;;;;;;;;;21.50;17.75;;;;;23.91;48.67;101663.47;5051420;28;45262;-67
2021/07/21 01:12:38;;;;;;;;;24.00;20.50;;;;;23.90;48.37;101667.06;5050695;28;45284;-68
2021/07/21 01:15:12;;;;;;;;;30.25;20.00;;;;;23.83;48.42;101660.50;5049248;28;45474;-68
2021/07/21 01:18:03;;;;;;;;;23.50;18.75;;;;;23.83;48.67;101662.28;5047018;28;45193;-68
2021/07/21 01:20:34;;;;;;;;;24.25;21.25;;;;;23.80;48.59;101667.78;5060299;28;45352;-68
2021/07/21 01:23:12;;;;;;;;;25.00;19.50;;;;;23.77;48.79;101665.34;5060433;28;45258;-67
2021/07/21 01:25:55;;;;;;;;;23.50;21.00;;;;;23.74;48.77;101663.75;5047637;28;45343;-67
2021/07/21 01:28:22;;;;;;;;;23.00;17.25;;;;;23.72;48.83;101663.00;5060615;28;45466;-67
2021/07/21 01:30:50;;;;;;;;;22.25;18.00;;;;;23.70;49.06;101658.75;5060238;28;46110;-66
2021/07/21 01:33:17;;;;;;;;;17.00;15.25;;;;;23.67;48.89;101647.41;5060928;28;45273;-67
2021/07/21 01:35:53;;;;;;;;;24.50;21.00;;;;;23.65;49.18;101648.47;5057002;28;45466;-67
2021/07/21 01:38:26;;;;;;;;;23.50;17.50;;;;;23.64;49.62;101654.72;5060671;28;45411;-67
2021/07/21 01:40:56;;;;;;;;;27.75;22.50;;;;;23.61;49.70;101658.41;5060666;28;46146;-67
2021/07/21 01:43:27;;;;;;;;;23.75;18.75;;;;;23.62;49.70;101664.56;5060305;28;45311;-67
2021/07/21 01:45:53;;;;;;;;;22.50;19.50;;;;;23.60;49.82;101662.03;5060837;28;45155;-67
2021/07/21 01:48:22;;;;;;;;;22.25;19.50;;;;;23.59;49.34;101665.63;5060101;28;45572;-66
2021/07/21 01:50:50;;;;;;;;;26.75;20.25;;;;;23.57;49.59;101670.19;5060170;28;45485;-67
2021/07/21 01:53:16;;;;;;;;;18.00;16.50;;;;;23.53;49.88;101666.03;5059968;28;45190;-67
2021/07/21 01:55:43;;;;;;;;;23.00;20.25;;;;;23.51;49.45;101669.75;5060664;28;45181;-67
2021/07/21 01:58:11;;;;;;;;;26.75;21.00;;;;;23.48;49.41;101670.78;5059753;28;45333;-67
2021/07/21 02:00:37;;;;;;;;;23.50;20.00;;;;;23.46;49.85;101672.72;5060208;28;46283;-68
2021/07/21 02:03:03;;;;;;;;;22.25;22.00;;;;;23.43;49.95;101677.38;5046112;28;45364;-68
2021/07/21 02:05:30;;;;;;;;;23.25;20.50;;;;;23.42;49.68;101680.94;5058447;28;45447;-68
2021/07/21 02:07:57;;;;;;;;;22.00;20.25;;;;;23.37;49.70;101681.25;5059750;28;45243;-68
2021/07/21 02:10:26;;;;;;;;;27.75;23.25;;;;;23.34;50.06;101679.66;5059743;28;46322;-68
2021/07/21 02:13:24;;;;;;;;;24.00;21.25;;;;;23.27;49.72;101683.69;5059623;28;45305;-71
2021/07/21 02:15:49;;;;;;;;;28.75;20.50;;;;;23.23;50.25;101681.34;5043805;28;45516;-68
2021/07/21 02:18:18;;;;;;;;;18.75;16.50;;;;;23.20;49.95;101674.41;5060072;28;45208;-67
2021/07/21 02:20:48;;;;;;;;;27.50;21.50;;;;;23.20;50.45;101670.91;5058383;28;46127;-67
2021/07/21 02:23:16;;;;;;;;;21.50;19.75;;;;;23.19;50.45;101674.50;5060016;28;45286;-67
2021/07/21 02:25:42;;;;;;;;;23.75;19.50;;;;;23.13;50.43;101667.81;5048223;28;45426;-67
2021/07/21 02:28:08;;;;;;;;;24.25;19.50;;;;;23.11;50.35;101671.53;5059417;28;45332;-67
2021/07/21 02:30:35;;;;;;;;;20.00;19.25;;;;;23.09;50.36;101682.22;5058998;28;46222;-66
2021/07/21 02:33:23;;;;;;;;;24.50;20.75;;;;;23.06;50.82;101675.34;5059275;28;45440;-67
2021/07/21 02:35:49;;;;;;;;;23.00;20.75;;;;;23.04;50.50;101681.69;5056251;28;45570;-66
2021/07/21 02:38:15;;;;;;;;;25.50;21.75;;;;;23.01;50.84;101666.81;5059757;28;45642;-69
2021/07/21 02:40:42;;;;;;;;;26.25;21.50;;;;;22.99;50.68;101673.16;5059203;28;45372;-66
2021/07/21 02:43:07;;;;;;;;;20.00;19.25;;;;;22.98;50.80;101674.09;5059486;28;46491;-66
2021/07/21 02:45:35;;;;;;;;;23.25;22.00;;;;;22.96;50.74;101673.34;5059479;28;45451;-67
2021/07/21 02:48:02;;;;;;;;;24.25;21.00;;;;;22.97;51.05;101672.41;5058896;28;45499;-68
2021/07/21 02:50:27;;;;;;;;;25.25;21.25;;;;;22.94;50.93;101680.56;5058598;28;45433;-69
2021/07/21 02:53:01;;;;;;;;;25.25;22.50;;;;;22.91;51.18;101683.41;5059715;28;45299;-67
2021/07/21 02:55:33;;;;;;;;;25.50;22.00;;;;;22.86;51.29;101683.72;5047064;28;45375;-67
2021/07/21 02:58:01;;;;;;;;;25.75;21.00;;;;;22.81;51.46;101692.84;5058778;28;45585;-68
2021/07/21 03:00:30;;;;;;;;;24.50;21.50;;;;;22.74;51.51;101687.97;5059554;28;45355;-68
2021/07/21 03:02:58;;;;;;;;;28.00;21.75;;;;;22.69;51.67;101690.06;5044911;28;45261;-67
2021/07/21 03:05:25;;;;;;;;;28.00;22.50;;;;;22.67;51.94;101694.59;5046521;28;45485;-67
2021/07/21 03:07:54;;;;;;;;;28.00;21.75;;;;;22.65;51.78;101693.84;5059071;28;45269;-67
2021/07/21 03:10:20;;;;;;;;;23.50;21.25;;;;;22.63;51.91;101689.59;5059089;28;45264;-67
2021/07/21 03:12:50;;;;;;;;;22.50;20.75;;;;;22.61;52.10;101699.41;5058762;28;45277;-67
2021/07/21 03:15:16;;;;;;;;;27.75;23.75;;;;;22.59;52.17;101701.31;5059697;28;45311;-67
2021/07/21 03:17:45;;;;;;;;;27.50;22.75;;;;;22.56;52.25;101696.22;5058904;28;45406;-67
2021/07/21 03:20:12;;;;;;;;;30.75;24.50;;;;;22.54;52.45;101698.09;5059025;28;46536;-67
2021/07/21 03:22:40;;;;;;;;;26.75;21.75;;;;;22.54;52.23;101701.59;5058690;28;45654;-67
2021/07/21 03:25:08;;;;;;;;;28.00;21.75;;;;;22.50;52.45;101694.81;5059467;28;45323;-67
2021/07/21 03:27:36;;;;;;;;;30.25;22.50;;;;;22.49;52.38;101698.41;5058365;28;45461;-68
2021/07/21 03:30:06;;;;;;;;;33.75;25.00;;;;;22.48;52.54;101701.16;5059169;28;46277;-67
2021/07/21 03:32:33;;;;;;;;;31.50;26.25;;;;;22.46;52.37;101703.88;5059691;28;45763;-67
2021/07/21 03:34:58;;;;;;;;;25.50;22.75;;;;;22.42;52.59;101705.84;5061403;28;45418;-69
2021/07/21 03:37:25;;;;;;;;;27.75;24.50;;;;;22.40;53.00;101702.44;5060000;28;45181;-69
2021/07/21 03:39:56;;;;;;;;;30.50;23.50;;;;;22.39;53.33;101695.44;5062590;28;45972;-69
2021/07/21 03:42:24;;;;;;;;;25.75;23.00;;;;;22.37;52.84;101700.00;5061910;28;45281;-70
2021/07/21 03:44:52;;;;;;;;;30.25;27.00;;;;;22.38;53.16;101695.56;5062775;28;45265;-70
2021/07/21 03:47:19;;;;;;;;;25.75;22.50;;;;;22.37;52.96;101702.66;5062019;28;45498;-70
2021/07/21 03:49:45;;;;;;;;;26.00;24.00;;;;;22.36;53.22;101695.66;5062069;28;46228;-70
2021/07/21 03:52:11;;;;;;;;;29.25;24.25;;;;;22.37;53.33;101694.69;5061776;28;45334;-70
2021/07/21 03:54:37;;;;;;;;;28.75;22.00;;;;;22.36;53.39;101693.00;5062363;28;45280;-69
2021/07/21 03:57:04;;;;;;;;;28.75;24.00;;;;;22.35;53.33;101696.59;5049332;28;45432;-69
2021/07/21 03:59:29;;;;;;;;;29.00;22.25;;;;;22.31;53.04;101697.72;5061542;28;46109;-68
2021/07/21 04:01:57;;;;;;;;;28.75;22.50;;;;;22.30;53.67;101705.78;5054392;28;45299;-68
2021/07/21 04:04:23;;;;;;;;;25.75;22.00;;;;;22.24;53.26;101703.50;5054495;28;45318;-68
2021/07/21 04:06:51;;;;;;;;;28.75;23.50;;;;;22.21;54.06;101701.88;5061572;28;45455;-67
2021/07/21 04:09:20;;;;;;;;;30.75;25.00;;;;;22.20;53.97;101699.31;5060705;28;48496;-67
2021/07/21 04:11:46;;;;;;;;;31.00;27.25;;;;;22.19;53.69;101702.91;5061513;28;45727;-67
2021/07/21 04:14:14;;;;;;;;;33.75;25.75;;;;;22.15;54.24;101703.09;5062348;28;45470;-67
2021/07/21 04:16:40;;;;;;;;;26.50;24.00;;;;;22.15;54.05;101705.75;5061900;28;45418;-69
2021/07/21 04:19:08;;;;;;;;;31.50;24.75;;;;;22.15;54.32;101704.91;5061576;28;46210;-68
2021/07/21 04:21:39;;;;;;;;;31.50;24.00;;;;;22.13;55.52;101707.66;5048799;28;45697;-68
2021/07/21 04:24:06;;;;;;;;;23.25;23.25;;;;;22.07;54.84;101715.13;5061602;28;45299;-66
2021/07/21 04:26:32;;;;;;;;;35.00;26.50;;;;;22.00;55.45;101705.78;5061824;28;45343;-67
2021/07/21 04:28:58;;;;;;;;;28.50;23.75;;;;;21.99;55.20;101717.31;5060914;28;46281;-67
2021/07/21 04:31:27;;;;;;;;;26.50;25.75;;;;;22.01;55.03;101723.38;5061401;28;45233;-74
2021/07/21 04:33:54;;;;;;;;;31.50;24.25;;;;;22.01;55.37;101718.94;5060934;28;45196;-73
2021/07/21 04:36:21;;;;;;;;;34.50;27.75;;;;;22.01;55.22;101716.28;5057883;28;45459;-72
2021/07/21 04:38:47;;;;;;;;;31.50;25.00;;;;;22.00;55.89;101722.53;5058990;28;46749;-69
2021/07/21 04:41:12;;;;;;;;;32.00;25.50;;;;;21.97;56.16;101725.34;5058951;28;45503;-64
2021/07/21 04:43:38;;;;;;;;;24.50;20.00;;;;;21.97;55.30;101729.78;5057240;28;45443;-66
2021/07/21 04:46:05;;;;;;;;;31.00;27.50;;;;;21.97;55.39;101735.94;5058816;28;45404;-66
2021/07/21 04:48:30;;;;;;;;;28.75;25.00;;;;;21.99;55.18;101736.69;5058152;28;46424;-66
2021/07/21 04:50:56;;;;;;;;;31.00;25.00;;;;;21.99;55.49;101736.69;5058747;28;45422;-67
2021/07/21 04:53:22;;;;;;;;;30.50;25.75;;;;;22.02;56.10;101733.00;5060153;28;45319;-66
2021/07/21 04:55:48;;;;;;;;;28.75;27.50;;;;;22.01;55.96;101734.81;5041621;28;45616;-67
2021/07/21 04:58:14;;;;;;;;;34.50;27.00;;;;;22.04;55.40;101737.34;5057336;28;45597;-66
2021/07/21 05:00:40;;;;;;;;;35.50;26.50;;;;;22.05;55.86;101738.19;5058587;28;45807;-66
2021/07/21 05:03:10;;;;;;;;;28.00;24.50;;;;;22.09;56.02;101743.19;5043982;28;45858;-65
2021/07/21 05:05:37;;;;;;;;;29.25;24.25;;;;;22.14;55.84;101740.28;5058234;28;45553;-65
2021/07/21 05:08:03;;;;;;;;;27.50;23.75;;;;;22.18;55.44;101741.78;5058144;28;45478;-65
2021/07/21 05:10:29;;;;;;;;;26.75;23.00;;;;;22.21;55.71;101746.03;5059091;28;45813;-65
2021/07/21 05:12:54;;;;;;;;;28.00;24.00;;;;;22.22;55.25;101750.38;5059678;28;45490;-65
2021/07/21 05:15:20;;;;;;;;;30.00;26.50;;;;;22.22;55.31;101745.94;5042304;28;45820;-66
2021/07/21 05:17:45;;;;;;;;;34.50;29.25;;;;;22.26;55.57;101751.94;5060505;28;45315;-66
2021/07/21 05:20:11;;;;;;;;;34.75;23.25;;;;;22.26;55.19;101752.78;5060331;28;45320;-67
2021/07/21 05:22:36;;;;;;;;;27.75;25.00;;;;;22.28;55.18;101750.88;5060628;28;45373;-68
2021/07/21 05:25:02;;;;;;;;;27.25;24.50;;;;;22.33;55.69;101761.19;5060948;28;45333;-66
2021/07/21 05:27:27;;;;;;;;;29.50;28.00;;;;;22.39;55.32;101763.47;5060001;28;45498;-66
2021/07/21 05:29:53;;;;;;;;;32.50;26.50;;;;;22.49;55.31;101769.06;5060818;28;45301;-65
2021/07/21 05:32:18;;;;;;;;;35.50;24.25;;;;;22.55;54.93;101766.03;5060337;28;45291;-66
2021/07/21 05:34:44;;;;;;;;;28.75;27.50;;;;;22.63;54.57;101771.75;5060239;28;45257;-65
2021/07/21 05:37:10;;;;;;;;;35.25;27.25;;;;;22.68;55.09;101774.94;5056746;28;45249;-64
2021/07/21 05:39:35;;;;;;;;;30.25;23.75;;;;;22.73;54.13;101775.50;5060845;28;45464;-65
2021/07/21 05:42:00;;;;;;;;;28.25;24.00;;;;;22.80;54.24;101778.63;5061321;28;45325;-74
2021/07/21 05:44:26;;;;;;;;;34.50;25.25;;;;;22.83;53.81;101775.84;5044372;28;45411;-70
2021/07/21 05:46:52;;;;;;;;;33.50;27.50;;;;;22.90;53.85;101779.78;5058890;28;47008;-67
2021/07/21 05:49:17;;;;;;;;;31.50;27.00;;;;;22.97;53.71;101791.72;5060433;28;45229;-66
2021/07/21 05:51:43;;;;;;;;;33.00;25.25;;;;;23.00;53.91;101789.72;5059752;28;45208;-64
2021/07/21 05:54:09;;;;;;;;;35.75;29.00;;;;;23.04;53.75;101783.28;5060434;28;45234;-65
2021/07/21 05:56:34;;;;;;;;;28.75;24.50;;;;;23.09;53.28;101785.66;5059730;28;46084;-66
2021/07/21 05:59:00;;;;;;;;;32.50;27.25;;;;;23.18;53.47;101789.50;5060028;28;45324;-67
2021/07/21 06:01:25;;;;;;;;;34.25;31.50;;;;;23.23;53.31;101790.94;5056830;28;45272;-67
2021/07/21 06:03:51;;;;;;;;;34.00;29.25;;;;;23.27;53.41;101797.75;5030053;28;45353;-67
2021/07/21 06:06:16;;;;;;;;;33.00;29.25;;;;;23.20;53.10;101795.56;5058977;28;46177;-68
2021/07/21 06:08:42;;;;;;;;;31.00;25.00;;;;;23.17;53.34;101799.25;5059698;28;45297;-67
2021/07/21 06:11:08;;;;;;;;;38.75;29.25;;;;;23.18;52.96;101803.59;5059609;28;45297;-66
2021/07/21 06:13:34;;;;;;;;;34.75;28.50;;;;;23.22;53.39;101805.09;5059902;28;45242;-66
2021/07/21 06:16:05;;;;;;;;;30.25;25.50;;;;;23.25;53.05;101804.09;5059387;28;46056;-67
2021/07/21 06:18:31;;;;;;;;;32.50;27.00;;;;;23.31;52.89;101807.19;5059904;28;45422;-66
2021/07/21 06:20:56;;;;;;;;;34.50;29.50;;;;;23.35;52.93;101810.50;5058810;28;45351;-68
2021/07/21 06:23:21;;;;;;;;;29.50;27.25;;;;;23.40;52.79;101808.38;5059919;28;45537;-67
2021/07/21 06:25:47;;;;;;;;;39.00;28.50;;;;;23.48;52.81;101814.06;5058890;28;45319;-67
2021/07/21 06:28:12;;;;;;;;;32.50;24.50;;;;;23.52;52.82;101817.38;5050592;28;45432;-67
2021/07/21 06:30:37;;;;;;;;;30.50;23.00;;;;;23.55;52.74;101818.03;5054685;28;45383;-67
2021/07/21 06:33:03;;;;;;;;;30.50;25.50;;;;;23.63;52.53;101821.09;5059443;28;45400;-67
2021/07/21 06:35:28;;;;;;;;;33.00;27.00;;;;;23.69;52.10;101832.25;5055382;28;45322;-67
2021/07/21 06:37:54;;;;;;;;;32.25;25.50;;;;;23.71;51.84;101825.88;5059464;28;45285;-66
2021/07/21 06:40:20;;;;;;;;;33.75;26.75;;;;;23.69;51.96;101814.50;5058689;28;45200;-69
2021/07/21 06:42:45;;;;;;;;;32.50;27.00;;;;;23.76;51.49;101831.72;5059282;28;45411;-68
2021/07/21 06:45:10;;;;;;;;;33.00;26.50;;;;;23.80;51.40;101819.94;5058660;28;45242;-66
2021/07/21 06:47:36;;;;;;;;;30.50;26.50;;;;;23.85;51.29;101831.13;5059545;28;45236;-66
2021/07/21 06:50:01;;;;;;;;;40.75;29.25;;;;;23.89;51.25;101824.66;5057037;28;45197;-67
2021/07/21 06:52:27;;;;;;;;;35.00;27.00;;;;;23.95;51.59;101834.03;5058919;28;45431;-65
2021/07/21 06:54:53;;;;;;;;;35.50;31.50;;;;;24.02;51.15;101829.16;5057552;28;46161;-65
2021/07/21 06:57:19;;;;;;;;;33.50;28.75;;;;;24.07;51.09;101832.38;5059048;28;45370;-66
2021/07/21 06:59:44;;;;;;;;;26.00;24.25;;;;;24.16;51.08;101839.72;5058290;28;45284;-65
2021/07/21 07:02:10;;;;;;;;;47.50;37.25;;;;;24.26;50.73;101844.31;5029478;28;45420;-65
2021/07/21 07:04:35;;;;;;;;;38.50;31.00;;;;;24.31;50.69;101841.38;5046123;28;46161;-65
2021/07/21 07:07:01;;;;;;;;;31.25;28.50;;;;;24.44;50.90;101838.75;5060434;28;45459;-65
2021/07/21 07:09:26;;;;;;;;;33.75;30.25;;;;;24.58;49.84;101839.47;5065177;28;45335;-66
2021/07/21 07:11:52;;;;;;;;;45.50;34.25;;;;;24.66;49.53;101843.44;5065789;28;45326;-65
2021/07/21 07:14:19;;;;;;;;;31.00;29.50;;;;;24.77;49.87;101844.38;5064488;28;47190;-64
2021/07/21 07:16:45;;;;;;;;;37.00;31.00;;;;;24.86;49.80;101849.06;5053054;28;45443;-64
2021/07/21 07:19:10;;;;;;;;;38.00;29.75;;;;;24.98;49.38;101838.50;5065284;28;45304;-66
2021/07/21 07:21:37;;;;;;;;;35.75;28.00;;;;;25.11;48.36;101839.38;5065754;28;45196;-66
2021/07/21 07:24:03;;;;;;;;;40.50;31.25;;;;;25.24;48.73;101844.69;5064971;28;46196;-63
2021/07/21 07:26:28;;;;;;;;;44.50;34.50;;;;;25.34;48.50;101838.56;5065307;28;45353;-63
2021/07/21 07:28:55;;;;;;;;;33.00;30.25;;;;;25.44;48.22;101838.78;5064582;28;45461;-63
2021/07/21 07:31:21;;;;;;;;;34.00;30.00;;;;;25.58;47.66;101843.91;5065353;28;45276;-63
2021/07/21 07:33:46;;;;;;;;;36.00;29.50;;;;;25.61;46.96;101840.19;5064788;28;45534;-64
2021/07/21 07:36:12;;;;;;;;;38.25;31.50;;;;;25.65;47.51;101842.53;5061920;28;45573;-64
2021/07/21 07:38:37;;;;;;;;;30.25;27.75;;;;;25.76;46.47;101842.59;5065136;28;45312;-64
2021/07/21 07:41:03;;;;;;;;;33.50;29.75;;;;;25.80;46.38;101847.69;5065405;28;45416;-64
2021/07/21 07:43:29;;;;;;;;;37.75;32.00;;;;;25.84;46.19;101851.84;5063043;28;45433;-64
2021/07/21 07:45:57;;;;;;;;;38.25;32.00;;;;;25.89;46.53;101845.22;5054217;28;45229;-64
2021/07/21 07:48:26;;;;;;;;;35.00;27.50;;;;;25.99;46.45;101846.22;5065190;28;45507;-64
2021/07/21 07:50:52;;;;;;;;;35.25;29.50;;;;;26.07;46.39;101837.66;5063225;28;45326;-64
2021/07/21 07:53:17;;;;;;;;;38.25;30.25;;;;;26.11;45.77;101840.94;5064605;28;46205;-63
2021/07/21 07:55:43;;;;;;;;;35.75;28.75;;;;;26.19;45.98;101838.53;5065348;28;45326;-63
2021/07/21 07:58:11;;;;;;;;;32.75;29.25;;;;;26.26;45.64;101845.13;5064620;28;45434;-65
2021/07/21 08:00:36;;;;;;;;;32.25;28.25;;;;;26.31;45.47;101835.78;5065226;28;45225;-64
2021/07/21 08:03:02;;;;;;;;;37.75;30.50;;;;;26.35;45.46;101842.63;5050737;28;45668;-65
2021/07/21 08:05:27;;;;;;;;;25.25;25.00;;;;;26.32;44.52;101832.16;5064702;28;45209;-69
2021/07/21 08:07:52;;;;;;;;;35.25;29.50;;;;;26.30;45.99;101835.91;5064933;28;45228;-69
2021/07/21 08:10:18;;;;;;;;;34.00;28.50;;;;;26.33;44.66;101836.53;5046656;28;45236;-69
2021/07/21 08:12:44;;;;;;;;;28.75;25.25;;;;;26.31;45.01;101834.94;5051317;28;45580;-69
2021/07/21 08:15:12;;;;;;;;;33.25;29.25;;;;;26.34;44.14;101840.91;5065150;28;45363;-69
2021/07/21 08:17:38;;;;;;;;;25.75;24.25;;;;;26.32;43.45;101837.50;5064947;28;45487;-71
2021/07/21 08:20:05;;;;;;;;;29.50;24.25;;;;;26.35;43.68;101839.94;5060745;28;45482;-71
2021/07/21 08:22:38;;;;;;;;;29.75;24.50;;;;;26.47;44.31;101838.16;5043034;28;47089;-76
2021/07/21 08:25:05;;;;;;;;;34.75;29.00;;;;;26.62;44.28;101842.28;5043865;28;45486;-76
2021/07/21 08:27:31;;;;;;;;;34.25;29.50;;;;;26.78;43.74;101839.28;5061025;28;45268;-75
2021/07/21 08:29:56;;;;;;;;;35.25;27.50;;;;;26.89;43.78;101846.47;5061833;28;45244;-75
2021/07/21 08:32:21;;;;;;;;;33.75;30.00;;;;;26.88;43.63;101848.28;5057531;28;45153;-67
2021/07/21 08:34:47;;;;;;;;;27.00;20.50;;;;;26.90;43.54;101843.66;5051073;28;45221;-69
2021/07/21 08:37:12;;;;;;;;;32.50;29.50;;;;;26.89;43.18;101846.47;5045165;28;45474;-66
2021/07/21 08:39:37;;;;;;;;;39.50;33.00;;;;;26.89;43.51;101843.78;5061580;28;45226;-67
2021/07/21 08:42:04;;;;;;;;;31.75;26.75;;;;;27.01;42.99;101842.84;5061000;28;45281;-65
2021/07/21 08:44:29;;;;;;;;;34.25;28.50;;;;;27.03;42.56;101851.59;5043282;28;45391;-65
2021/07/21 08:46:56;;;;;;;;;35.25;29.00;;;;;26.97;42.15;101842.19;5061417;28;45339;-64
2021/07/21 08:49:21;;;;;;;;;23.75;20.75;;;;;26.98;41.30;101841.22;5061440;28;45398;-65
2021/07/21 08:51:47;;;;;;;;;25.25;21.25;;;;;27.04;42.13;101839.09;5060763;28;46288;-64
2021/07/21 08:54:16;;;;;;;;;28.25;21.75;;;;;27.03;41.48;101832.91;5061564;28;45431;-62
2021/07/21 08:56:43;;;;;;;;;25.25;23.75;;;;;27.05;42.00;101840.81;5047278;28;45290;-64
2021/07/21 08:59:08;;;;;;;;;28.75;23.25;;;;;27.09;42.47;101837.75;5060783;28;45485;-66
2021/07/21 09:01:35;;;;;;;;;34.25;29.00;;;;;27.20;42.42;101839.56;5057607;28;46526;-62
2021/07/21 09:04:01;;;;;;;;;31.50;26.75;;;;;27.26;42.29;101847.94;5050180;28;45676;-61
2021/07/21 09:06:26;;;;;;;;;29.50;25.25;;;;;27.36;42.46;101844.50;5060459;28;45587;-62
2021/07/21 09:08:51;;;;;;;;;33.75;25.00;;;;;27.44;41.39;101840.25;5060946;28;45315;-62
2021/07/21 09:11:18;;;;;;;;;32.50;27.75;;;;;27.48;41.48;101840.84;5060327;28;45316;-61
2021/07/21 09:13:43;;;;;;;;;30.50;26.50;;;;;27.48;41.31;101831.03;5060636;28;45557;-62
2021/07/21 09:16:09;;;;;;;;;27.25;21.25;;;;;27.41;40.74;101845.81;5060834;28;45248;-61
2021/07/21 09:18:48;;;;;;;;;26.50;24.75;;;;;27.43;40.58;101838.56;5060175;28;45457;-64
2021/07/21 09:21:16;;;;;;;;;21.50;19.75;;;;;27.47;41.04;101840.00;5059929;28;45959;-64
2021/07/21 09:23:44;;;;;;;;;19.75;19.00;;;;;27.58;40.82;101845.31;5060895;28;45670;-65
2021/07/21 09:26:17;;;;;;;;;30.75;23.00;;;;;27.73;39.42;101845.06;5060467;28;45260;-62
2021/07/21 09:28:44;;;;;;;;;24.50;21.75;;;;;27.86;40.25;101838.59;5042965;28;45450;-63
2021/07/21 09:31:31;;;;;;;;;28.75;23.00;;;;;28.04;40.21;101841.56;5060094;28;45355;-62
2021/07/21 09:33:56;;;;;;;;;20.25;20.00;;;;;28.21;40.48;101845.44;5059864;28;45293;-63
2021/07/21 09:36:22;;;;;;;;;24.50;21.75;;;;;28.18;39.82;101838.53;5057612;28;45284;-62
2021/07/21 09:38:48;;;;;;;;;24.50;22.25;;;;;28.14;39.68;101839.78;5060218;28;45438;-65
2021/07/21 09:41:16;;;;;;;;;24.00;22.50;;;;;28.15;39.10;101840.63;5060194;28;46648;-64
2021/07/21 09:43:42;;;;;;;;;22.50;19.25;;;;;28.00;39.02;101821.38;5059795;28;45633;-64
2021/07/21 09:46:10;;;;;;;;;18.25;18.25;;;;;28.17;39.51;101838.66;5060493;28;45356;-66
2021/07/21 09:48:43;;;;;;;;;30.25;23.75;;;;;28.15;39.39;101838.81;5059888;28;45268;-64
2021/07/21 09:51:10;;;;;;;;;22.50;19.25;;;;;28.15;39.46;101840.63;5059702;28;46197;-63
2021/07/21 09:53:46;;;;;;;;;19.50;18.25;;;;;28.18;38.98;101841.22;5059909;28;45570;-61
2021/07/21 09:56:12;;;;;;;;;24.50;21.00;;;;;28.22;39.07;101832.94;5059985;28;45440;-62
2021/07/21 09:58:38;;;;;;;;;30.50;23.75;;;;;28.29;39.39;101829.66;5051745;28;45379;-63
2021/07/21 10:01:05;;;;;;;;;25.50;22.25;;;;;28.43;38.79;101839.16;5051742;28;46224;-62
2021/07/21 10:03:34;;;;;;;;;23.50;21.25;;;;;28.57;38.45;101838.81;5026998;28;45491;-63
2021/07/21 10:06:01;;;;;;;;;24.00;19.25;;;;;28.62;38.36;101830.41;5058505;28;45277;-63
2021/07/21 10:08:48;;;;;;;;;22.25;19.50;;;;;28.62;37.70;101831.25;5059294;28;45364;-64
2021/07/21 10:11:24;;;;;;;;;24.50;19.75;;;;;28.64;38.11;101817.75;5059153;28;46639;-64
2021/07/21 10:13:52;;;;;;;;;25.00;20.00;;;;;28.70;37.69;101822.56;5052592;28;45470;-65
2021/07/21 10:16:36;;;;;;;;;20.00;17.25;;;;;28.81;37.42;101830.50;5052930;28;45332;-65
2021/07/21 10:19:07;;;;;;;;;20.50;18.00;;;;;28.82;37.82;101823.31;5049359;28;45304;-67
2021/07/21 10:21:34;;;;;;;;;20.25;15.50;;;;;28.92;37.18;101824.25;5031009;28;47379;-64
2021/07/21 10:23:59;;;;;;;;;24.00;19.50;;;;;29.05;36.27;101817.69;5047539;28;45618;-62
2021/07/21 10:26:27;;;;;;;;;13.50;12.50;;;;;29.13;36.70;101824.19;5058365;28;45505;-67
2021/07/21 10:28:57;;;;;;;;;17.75;17.75;;;;;29.19;36.74;101819.13;5052268;28;45713;-63
2021/07/21 10:31:23;;;;;;;;;21.50;19.75;;;;;29.30;37.36;101816.34;5059330;28;45311;-71
2021/07/21 10:33:49;;;;;;;;;19.50;16.00;;;;;29.46;36.29;101825.72;5058940;28;45237;-63
2021/07/21 10:36:15;;;;;;;;;17.25;16.50;;;;;29.57;36.82;101829.09;5055693;28;45798;-65
2021/07/21 10:38:40;;;;;;;;;21.50;18.50;;;;;29.57;36.59;101826.41;5058977;28;45400;-64
2021/07/21 10:41:06;;;;;;;;;17.50;16.50;;;;;29.54;36.32;101826.69;5059085;28;45454;-66
2021/07/21 10:43:32;;;;;;;;;23.00;21.25;;;;;29.58;36.64;101824.56;5055743;28;45353;-71
2021/07/21 10:45:57;;;;;;;;;28.25;18.25;;;;;29.64;36.17;101826.72;5048320;28;45394;-63
2021/07/21 10:48:46;;;;;;;;;22.75;17.50;;;;;29.62;36.49;101825.97;5058938;28;45469;-67
2021/07/21 10:51:39;;;;;;;;;20.00;17.75;;;;;29.65;37.05;101823.91;5059030;28;46070;-65
2021/07/21 10:54:22;;;;;;;;;20.50;19.00;;;;;29.60;37.12;101819.91;5048523;28;45295;-66
2021/07/21 10:59:41;;;;;;;;;22.75;19.75;;;;;29.60;36.95;101818.09;5057776;28;45439;-65
2021/07/21 11:02:08;;;;;;;;;27.00;22.25;;;;;29.66;37.15;101820.22;5050808;28;45479;-63
2021/07/21 11:04:44;;;;;;;;;19.00;18.00;;;;;29.68;36.68;101820.09;5052038;28;45284;-64
2021/07/21 11:07:12;;;;;;;;;23.00;22.25;;;;;29.69;37.31;101816.41;5059285;28;45241;-70
2021/07/21 11:09:41;;;;;;;;;20.50;19.75;;;;;29.80;36.70;101816.25;5051946;28;45878;-70
2021/07/21 11:12:06;;;;;;;;;26.75;21.25;;;;;29.85;36.82;101811.34;5041678;28;46513;-67
2021/07/21 11:14:35;;;;;;;;;25.25;22.00;;;;;29.84;36.83;101815.03;5053785;28;45343;-67
2021/07/21 11:17:06;;;;;;;;;22.00;21.25;;;;;29.78;36.89;101804.84;5058010;28;45255;-66
2021/07/21 11:19:43;;;;;;;;;20.75;18.75;;;;;29.77;36.76;101808.50;5056987;28;45357;-68